Terminal Aerodrome Forecast
Issued by NWS

Home | Current Version | Previous Version | Text Only | Print | Product List | Glossary On
Versions: 1 2 3 4 5 6 7 8 9 10 11 12 13 14 15
000
FTUS43 KLSX 270653 AAA
TAFUIN
TAF AMD
KUIN 270653Z 2707/2806 16008KT 5SM -SHRA VCTS FEW060CB BKN090
      OVC120
      TEMPO 2707/2711 3SM SHRA FEW015 BKN030 OVC080
     FM271100 16007KT P6SM OVC060
     FM271800 18014KT 6SM -SHRA VCTS SCT025 OVC050CB
     FM280000 18010KT P6SM BKN040=

USA.gov is the U.S. government's official web portal to all federal, state and local government web resources and services.